Time;durP1;ratioP1;P1;durP2;ratioP2;P2;SDS_P1;SDS_P2;PMS_P1;PMS_P2;Temp;Humidity;BMP_temperature;BMP_pressure;BME280_temperature;BME280_humidity;BME280_pressure;Samples;Min_cycle;Max_cycle;Signal;HPM_P1;HPM_P2
2021/05/30 00:01:01;;;;;;;;;;;22.80;39.50;;;;;;1614935;73;1904;-70
2021/05/30 00:03:03;;;;;;;;;;;22.80;39.20;;;;;;1595996;73;769;-70
2021/05/30 00:05:05;;;;;;;;;;;22.80;39.30;;;;;;1611250;73;1162;-70
2021/05/30 00:07:10;;;;;;;;;;;22.80;39.40;;;;;;1613001;73;743;-72
2021/05/30 00:09:12;;;;;;;;;;;22.80;39.50;;;;;;1612700;73;825;-74
2021/05/30 00:11:14;;;;;;;;;;;22.80;39.20;;;;;;1594580;73;784;-74
2021/05/30 00:13:18;;;;;;;;;;;22.80;39.30;;;;;;1615048;73;762;-71
2021/05/30 00:15:19;;;;;;;;;;;22.80;39.20;;;;;;1611784;73;1121;-72
2021/05/30 00:17:21;;;;;;;;;;;22.80;39.00;;;;;;1616013;73;779;-72
2021/05/30 00:19:23;;;;;;;;;;;22.80;39.00;;;;;;1603189;73;745;-74
2021/05/30 00:21:25;;;;;;;;;;;22.80;39.00;;;;;;1602758;73;1895;-72
2021/05/30 00:23:27;;;;;;;;;;;22.80;39.10;;;;;;1615713;73;819;-73
2021/05/30 00:25:29;;;;;;;;;;;22.80;39.10;;;;;;1618568;73;1102;-76
2021/05/30 00:27:32;;;;;;;;;;;22.80;39.00;;;;;;1611345;73;742;-74
2021/05/30 00:29:34;;;;;;;;;;;22.80;39.00;;;;;;1604713;73;721;-72
2021/05/30 00:31:36;;;;;;;;;;;22.70;39.00;;;;;;1594435;73;910;-73
2021/05/30 00:33:38;;;;;;;;;;;22.70;39.20;;;;;;1596425;73;778;-72
2021/05/30 00:35:40;;;;;;;;;;;22.80;39.10;;;;;;1603171;73;1127;-71
2021/05/30 00:37:42;;;;;;;;;;;22.80;39.10;;;;;;1595036;73;774;-72
2021/05/30 00:39:43;;;;;;;;;;;22.80;38.90;;;;;;1593439;73;803;-74
2021/05/30 00:41:45;;;;;;;;;;;22.80;38.90;;;;;;1602189;73;1941;-70
2021/05/30 00:43:48;;;;;;;;;;;22.80;38.80;;;;;;1595799;73;769;-71
2021/05/30 00:45:50;;;;;;;;;;;22.80;38.90;;;;;;1604699;74;1091;-71
2021/05/30 00:47:51;;;;;;;;;;;22.80;38.80;;;;;;1607458;73;775;-70
2021/05/30 00:49:53;;;;;;;;;;;22.70;39.00;;;;;;1616189;73;708;-75
2021/05/30 00:51:55;;;;;;;;;;;22.80;39.00;;;;;;1605094;73;722;-74
2021/05/30 00:53:57;;;;;;;;;;;22.70;38.90;;;;;;1603668;73;765;-74
2021/05/30 00:55:59;;;;;;;;;;;22.70;38.80;;;;;;1614700;73;1095;-74
2021/05/30 00:58:01;;;;;;;;;;;22.70;38.60;;;;;;1594881;73;667;-75
2021/05/30 01:00:04;;;;;;;;;;;22.80;38.40;;;;;;1602445;73;679;-76
2021/05/30 01:02:06;;;;;;;;;;;22.70;38.30;;;;;;1602838;73;1932;-75
2021/05/30 01:04:08;;;;;;;;;;;22.70;37.90;;;;;;1600174;73;765;-73
2021/05/30 01:06:11;;;;;;;;;;;22.90;38.40;;;;;;1565323;74;738;-73
2021/05/30 01:08:15;;;;;;;;;;;22.80;38.30;;;;;;1611014;73;758;-75
2021/05/30 01:10:21;;;;;;;;;;;22.80;38.10;;;;;;1602222;73;744;-73
2021/05/30 01:12:23;;;;;;;;;;;22.80;38.30;;;;;;1610285;73;824;-72
2021/05/30 01:14:25;;;;;;;;;;;22.80;38.50;;;;;;1602862;73;1131;-69
2021/05/30 01:16:27;;;;;;;;;;;22.80;38.50;;;;;;1606686;73;736;-70
2021/05/30 01:18:29;;;;;;;;;;;22.90;38.60;;;;;;1612115;73;772;-69
2021/05/30 01:20:31;;;;;;;;;;;22.80;38.70;;;;;;1610286;73;763;-69
2021/05/30 01:22:34;;;;;;;;;;;22.70;38.40;;;;;;1612767;73;1939;-77
2021/05/30 01:24:36;;;;;;;;;;;22.70;38.60;;;;;;1615989;73;1279;-77
2021/05/30 01:26:38;;;;;;;;;;;22.80;38.40;;;;;;1604221;73;861;-76
2021/05/30 01:28:40;;;;;;;;;;;22.80;38.60;;;;;;1616439;73;789;-74
2021/05/30 01:30:42;;;;;;;;;;;22.80;38.60;;;;;;1613740;73;841;-74
2021/05/30 01:32:44;;;;;;;;;;;22.80;38.40;;;;;;1607833;73;815;-73
2021/05/30 01:34:46;;;;;;;;;;;22.80;38.40;;;;;;1604953;73;1144;-73
2021/05/30 01:36:48;;;;;;;;;;;22.80;38.40;;;;;;1615823;73;781;-74
2021/05/30 01:38:50;;;;;;;;;;;22.80;38.40;;;;;;1619730;73;742;-72
2021/05/30 01:40:52;;;;;;;;;;;22.80;38.50;;;;;;1614166;73;770;-71
2021/05/30 01:42:54;;;;;;;;;;;22.70;38.40;;;;;;1611730;73;1927;-69
2021/05/30 01:44:56;;;;;;;;;;;22.80;38.50;;;;;;1618726;73;1115;-69
2021/05/30 01:46:58;;;;;;;;;;;22.70;38.50;;;;;;1608792;73;753;-69
2021/05/30 01:49:00;;;;;;;;;;;22.70;38.50;;;;;;1613863;73;804;-70
2021/05/30 01:51:02;;;;;;;;;;;22.80;38.40;;;;;;1611647;73;733;-71
2021/05/30 01:53:07;;;;;;;;;;;22.80;38.40;;;;;;1602128;73;760;-71
2021/05/30 01:55:08;;;;;;;;;;;22.70;38.40;;;;;;1604211;73;1906;-69
2021/05/30 01:57:10;;;;;;;;;;;22.70;38.20;;;;;;1600011;73;691;-69
2021/05/30 01:59:12;;;;;;;;;;;22.80;38.30;;;;;;1605072;73;731;-70
2021/05/30 02:01:14;;;;;;;;;;;22.90;38.40;;;;;;1610172;73;1939;-70
2021/05/30 02:03:18;;;;;;;;;;;22.70;38.10;;;;;;1590142;73;784;-68
2021/05/30 02:05:20;;;;;;;;;;;22.80;38.20;;;;;;1593441;73;1447;-71
2021/05/30 02:07:22;;;;;;;;;;;22.80;38.30;;;;;;1613321;73;790;-73
2021/05/30 02:09:24;;;;;;;;;;;22.80;38.40;;;;;;1599810;73;794;-72
2021/05/30 02:11:26;;;;;;;;;;;22.80;38.30;;;;;;1596618;73;570;-72
2021/05/30 02:13:28;;;;;;;;;;;22.70;38.40;;;;;;1608149;73;832;-72
2021/05/30 02:15:30;;;;;;;;;;;22.70;38.40;;;;;;1599707;73;1125;-71
2021/05/30 02:17:31;;;;;;;;;;;22.70;38.40;;;;;;1597710;73;798;-71
2021/05/30 02:19:33;;;;;;;;;;;22.70;38.30;;;;;;1601998;73;758;-72
2021/05/30 02:21:41;;;;;;;;;;;22.80;38.30;;;;;;1594811;73;1944;-70
2021/05/30 02:23:43;;;;;;;;;;;22.80;38.40;;;;;;1596339;73;753;-71
2021/05/30 02:25:45;;;;;;;;;;;22.80;38.30;;;;;;1614332;73;1160;-71
2021/05/30 02:27:47;;;;;;;;;;;22.70;38.20;;;;;;1620325;72;723;-71
2021/05/30 02:29:49;;;;;;;;;;;22.80;38.40;;;;;;1604615;73;820;-70
2021/05/30 02:31:51;;;;;;;;;;;22.70;38.30;;;;;;1611706;73;915;-71
2021/05/30 02:33:52;;;;;;;;;;;22.70;38.30;;;;;;1607258;73;795;-71
2021/05/30 02:35:55;;;;;;;;;;;22.70;38.40;;;;;;1604578;73;1116;-72
2021/05/30 02:37:57;;;;;;;;;;;22.70;38.40;;;;;;1603702;73;802;-70
2021/05/30 02:39:59;;;;;;;;;;;22.70;38.30;;;;;;1600574;73;667;-71
2021/05/30 02:42:01;;;;;;;;;;;22.70;38.30;;;;;;1595557;73;1948;-71
2021/05/30 02:44:03;;;;;;;;;;;22.80;38.30;;;;;;1596836;73;792;-71
2021/05/30 02:46:05;;;;;;;;;;;22.70;38.30;;;;;;1579194;73;2121;-66
2021/05/30 02:48:07;;;;;;;;;;;22.70;38.40;;;;;;1537104;76;711;-65
2021/05/30 02:50:09;;;;;;;;;;;22.80;38.40;;;;;;1566421;74;719;-65
2021/05/30 02:52:11;;;;;;;;;;;22.70;38.40;;;;;;1569110;74;718;-64
2021/05/30 02:54:13;;;;;;;;;;;22.70;38.40;;;;;;1572182;74;778;-65
2021/05/30 02:56:14;;;;;;;;;;;22.70;38.30;;;;;;1595341;73;1186;-65
2021/05/30 02:58:16;;;;;;;;;;;22.80;38.30;;;;;;1582200;73;746;-65
2021/05/30 03:00:19;;;;;;;;;;;22.70;38.20;;;;;;1595028;73;747;-65
2021/05/30 03:02:21;;;;;;;;;;;22.80;38.20;;;;;;1604265;73;1952;-65
2021/05/30 03:04:22;;;;;;;;;;;22.80;38.20;;;;;;1593018;73;771;-65
2021/05/30 03:06:25;;;;;;;;;;;22.80;38.20;;;;;;1608790;73;1132;-67
2021/05/30 03:08:27;;;;;;;;;;;22.70;38.30;;;;;;1590001;73;804;-65
2021/05/30 03:10:28;;;;;;;;;;;22.70;38.30;;;;;;1589386;73;960;-66
2021/05/30 03:12:30;;;;;;;;;;;22.70;38.40;;;;;;1579009;73;772;-64
2021/05/30 03:14:32;;;;;;;;;;;22.70;38.40;;;;;;1578188;73;710;-65
2021/05/30 03:16:34;;;;;;;;;;;22.80;38.30;;;;;;1594495;73;1583;-64
2021/05/30 03:18:36;;;;;;;;;;;22.80;38.20;;;;;;1579730;73;789;-68
2021/05/30 03:20:38;;;;;;;;;;;22.80;38.20;;;;;;1590336;73;880;-64
2021/05/30 03:22:40;;;;;;;;;;;22.80;38.10;;;;;;1593040;73;1944;-65
2021/05/30 03:24:41;;;;;;;;;;;22.80;38.10;;;;;;1598555;73;1112;-65
2021/05/30 03:26:43;;;;;;;;;;;22.80;38.10;;;;;;1598713;73;776;-67
2021/05/30 03:28:45;;;;;;;;;;;22.70;38.00;;;;;;1592488;73;830;-65
2021/05/30 03:30:47;;;;;;;;;;;22.80;38.10;;;;;;1590876;73;831;-64
2021/05/30 03:32:49;;;;;;;;;;;22.70;38.00;;;;;;1600844;73;743;-64
2021/05/30 03:34:51;;;;;;;;;;;22.70;38.00;;;;;;1588326;73;1206;-65
2021/05/30 03:36:54;;;;;;;;;;;22.80;38.00;;;;;;1586715;73;704;-65
2021/05/30 03:39:03;;;;;;;;;;;22.80;38.00;;;;;;1587040;73;793;-66
2021/05/30 03:41:07;;;;;;;;;;;22.80;38.10;;;;;;1580645;73;669;-66
2021/05/30 03:43:09;;;;;;;;;;;22.80;38.10;;;;;;1604616;73;1898;-64
2021/05/30 03:45:11;;;;;;;;;;;22.70;38.10;;;;;;1585681;73;1151;-68
2021/05/30 03:47:13;;;;;;;;;;;22.70;38.10;;;;;;1589572;73;763;-65
2021/05/30 03:49:15;;;;;;;;;;;22.70;38.20;;;;;;1585514;73;738;-66
2021/05/30 03:51:17;;;;;;;;;;;22.70;38.10;;;;;;1601162;73;729;-65
2021/05/30 03:53:19;;;;;;;;;;;22.80;38.10;;;;;;1592164;73;786;-64
2021/05/30 03:55:21;;;;;;;;;;;22.80;38.10;;;;;;1584560;73;1171;-64
2021/05/30 03:57:23;;;;;;;;;;;22.80;38.20;;;;;;1590837;73;788;-65
2021/05/30 03:59:24;;;;;;;;;;;22.80;38.30;;;;;;1594750;73;786;-65
2021/05/30 04:01:26;;;;;;;;;;;22.80;38.20;;;;;;1587702;73;821;-65
2021/05/30 04:03:28;;;;;;;;;;;22.80;38.20;;;;;;1594102;73;1945;-65
2021/05/30 04:05:30;;;;;;;;;;;22.70;38.30;;;;;;1590590;73;1096;-65
2021/05/30 04:07:33;;;;;;;;;;;22.70;38.40;;;;;;1593033;73;749;-67
2021/05/30 04:09:35;;;;;;;;;;;22.80;38.40;;;;;;1591339;73;934;-64
2021/05/30 04:11:36;;;;;;;;;;;22.80;38.40;;;;;;1590824;73;771;-64
2021/05/30 04:13:38;;;;;;;;;;;22.70;38.50;;;;;;1595455;73;751;-65
2021/05/30 04:15:40;;;;;;;;;;;22.80;38.50;;;;;;1595022;73;1138;-64
2021/05/30 04:17:42;;;;;;;;;;;22.70;38.60;;;;;;1586888;73;763;-64
2021/05/30 04:19:44;;;;;;;;;;;22.70;38.40;;;;;;1589799;73;733;-64
2021/05/30 04:21:46;;;;;;;;;;;22.80;38.40;;;;;;1596594;73;758;-64
2021/05/30 04:23:49;;;;;;;;;;;22.80;38.40;;;;;;1591024;73;1945;-64
2021/05/30 04:25:51;;;;;;;;;;;22.80;38.40;;;;;;1589635;73;1182;-64
2021/05/30 04:27:53;;;;;;;;;;;22.80;38.20;;;;;;1601580;73;782;-64
2021/05/30 04:29:54;;;;;;;;;;;22.70;38.30;;;;;;1597336;73;796;-64
2021/05/30 04:31:58;;;;;;;;;;;22.70;38.30;;;;;;1593032;73;785;-64
2021/05/30 04:34:00;;;;;;;;;;;22.70;38.40;;;;;;1582734;73;1987;-64
2021/05/30 04:36:02;;;;;;;;;;;22.70;38.40;;;;;;1588888;73;1171;-66
2021/05/30 04:38:04;;;;;;;;;;;22.80;38.30;;;;;;1600315;73;779;-62
2021/05/30 04:40:06;;;;;;;;;;;22.70;38.40;;;;;;1592742;73;873;-64
2021/05/30 04:42:08;;;;;;;;;;;22.80;38.40;;;;;;1593581;73;804;-66
2021/05/30 04:44:10;;;;;;;;;;;22.70;38.40;;;;;;1589456;73;759;-65
2021/05/30 04:46:12;;;;;;;;;;;22.80;38.30;;;;;;1588119;73;1139;-66
2021/05/30 04:48:14;;;;;;;;;;;22.70;38.50;;;;;;1587864;73;697;-63
2021/05/30 04:50:16;;;;;;;;;;;22.70;38.60;;;;;;1586408;73;720;-63
2021/05/30 04:52:18;;;;;;;;;;;22.70;38.60;;;;;;1587965;73;1058;-65
2021/05/30 04:54:19;;;;;;;;;;;22.70;38.60;;;;;;1584189;73;793;-64
2021/05/30 04:56:22;;;;;;;;;;;22.80;38.50;;;;;;1594307;73;1187;-63
2021/05/30 04:58:24;;;;;;;;;;;22.70;38.60;;;;;;1584283;73;719;-63
2021/05/30 05:00:26;;;;;;;;;;;22.70;38.70;;;;;;1603950;73;940;-64
2021/05/30 05:02:28;;;;;;;;;;;22.80;38.80;;;;;;1583378;73;1929;-64
2021/05/30 05:04:29;;;;;;;;;;;22.70;38.80;;;;;;1587010;73;802;-66
2021/05/30 05:06:31;;;;;;;;;;;22.80;38.80;;;;;;1589084;73;1081;-65
2021/05/30 05:08:33;;;;;;;;;;;22.80;38.90;;;;;;1594863;73;831;-66
2021/05/30 05:10:35;;;;;;;;;;;22.80;38.90;;;;;;1588862;73;828;-64
2021/05/30 05:12:37;;;;;;;;;;;22.70;38.90;;;;;;1589192;73;772;-65
2021/05/30 05:14:39;;;;;;;;;;;22.70;39.00;;;;;;1593389;73;1147;-64
2021/05/30 05:16:41;;;;;;;;;;;22.70;38.90;;;;;;1589806;73;778;-66
2021/05/30 05:18:42;;;;;;;;;;;22.70;38.80;;;;;;1590690;73;672;-65
2021/05/30 05:20:44;;;;;;;;;;;22.80;39.00;;;;;;1587329;73;762;-66
2021/05/30 05:22:46;;;;;;;;;;;22.80;38.90;;;;;;1589328;73;1916;-64
2021/05/30 05:24:48;;;;;;;;;;;22.80;38.90;;;;;;1597132;73;1170;-64
2021/05/30 05:26:50;;;;;;;;;;;22.80;38.80;;;;;;1602449;73;789;-67
2021/05/30 05:28:53;;;;;;;;;;;22.80;38.80;;;;;;1586509;73;753;-66
2021/05/30 05:30:55;;;;;;;;;;;22.80;38.70;;;;;;1588733;73;816;-65
2021/05/30 05:32:58;;;;;;;;;;;22.80;38.70;;;;;;1599013;73;792;-67
2021/05/30 05:35:00;;;;;;;;;;;22.80;38.70;;;;;;1590073;73;1187;-65
2021/05/30 05:37:03;;;;;;;;;;;22.80;38.60;;;;;;1589683;73;695;-64
2021/05/30 05:39:05;;;;;;;;;;;22.80;38.70;;;;;;1586327;73;797;-65
2021/05/30 05:41:07;;;;;;;;;;;22.80;38.70;;;;;;1585065;73;765;-66
2021/05/30 05:43:09;;;;;;;;;;;22.90;38.90;;;;;;1585772;73;1925;-65
2021/05/30 05:45:11;;;;;;;;;;;22.90;38.80;;;;;;1583579;74;1125;-66
2021/05/30 05:47:13;;;;;;;;;;;22.80;38.90;;;;;;1584280;74;792;-65
2021/05/30 05:49:15;;;;;;;;;;;22.90;39.00;;;;;;1585317;73;759;-68
2021/05/30 05:51:17;;;;;;;;;;;22.80;38.90;;;;;;1581101;73;715;-66
2021/05/30 05:53:19;;;;;;;;;;;22.90;38.90;;;;;;1584661;73;824;-65
2021/05/30 05:55:21;;;;;;;;;;;22.90;39.00;;;;;;1586605;73;1107;-66
2021/05/30 05:57:23;;;;;;;;;;;22.90;39.00;;;;;;1582517;73;759;-65
2021/05/30 05:59:25;;;;;;;;;;;22.90;39.00;;;;;;1585526;73;752;-65
2021/05/30 06:01:27;;;;;;;;;;;22.90;39.20;;;;;;1588549;73;767;-67
2021/05/30 06:03:28;;;;;;;;;;;22.90;39.30;;;;;;1593268;73;1945;-65
2021/05/30 06:05:30;;;;;;;;;;;22.90;39.50;;;;;;1543433;74;1145;-65
2021/05/30 06:07:32;;;;;;;;;;;22.80;39.40;;;;;;1579586;73;788;-66
2021/05/30 06:09:34;;;;;;;;;;;22.80;39.40;;;;;;1585921;73;813;-65
2021/05/30 06:11:36;;;;;;;;;;;22.80;39.60;;;;;;1591711;73;776;-65
2021/05/30 06:13:38;;;;;;;;;;;22.60;40.00;;;;;;1589668;73;802;-65
2021/05/30 06:15:41;;;;;;;;;;;22.70;40.00;;;;;;1593101;73;1156;-65
2021/05/30 06:17:43;;;;;;;;;;;22.90;40.00;;;;;;1579080;73;1503;-65
2021/05/30 06:19:45;;;;;;;;;;;22.80;39.80;;;;;;1584043;73;747;-66
2021/05/30 06:21:47;;;;;;;;;;;22.90;39.70;;;;;;1584232;73;735;-64
2021/05/30 06:23:49;;;;;;;;;;;22.90;39.50;;;;;;1580718;73;1938;-68
2021/05/30 06:25:51;;;;;;;;;;;22.90;39.40;;;;;;1589931;73;1158;-67
2021/05/30 06:27:55;;;;;;;;;;;22.90;39.30;;;;;;1584399;74;708;-68
2021/05/30 06:29:57;;;;;;;;;;;22.90;39.20;;;;;;1581697;73;1951;-67
2021/05/30 06:31:59;;;;;;;;;;;22.90;39.20;;;;;;1579697;73;698;-67
2021/05/30 06:34:00;;;;;;;;;;;22.90;39.20;;;;;;1592576;73;740;-68
2021/05/30 06:36:03;;;;;;;;;;;22.90;39.20;;;;;;1591894;73;1174;-67
2021/05/30 06:38:06;;;;;;;;;;;22.90;39.20;;;;;;1586380;73;771;-67
2021/05/30 06:40:08;;;;;;;;;;;22.90;39.10;;;;;;1593017;73;575;-67
2021/05/30 06:42:10;;;;;;;;;;;22.90;39.00;;;;;;1589752;73;670;-67
2021/05/30 06:44:12;;;;;;;;;;;22.90;39.20;;;;;;1588636;73;1921;-67
2021/05/30 06:46:13;;;;;;;;;;;22.90;39.20;;;;;;1586985;73;1140;-67
2021/05/30 06:48:15;;;;;;;;;;;22.80;39.00;;;;;;1602555;73;776;-66
2021/05/30 06:50:17;;;;;;;;;;;22.90;39.20;;;;;;1595655;73;717;-67
2021/05/30 06:52:19;;;;;;;;;;;22.90;39.20;;;;;;1595199;73;744;-67
2021/05/30 06:54:21;;;;;;;;;;;22.80;39.00;;;;;;1590097;73;713;-67
2021/05/30 06:56:23;;;;;;;;;;;22.90;39.20;;;;;;1601605;73;1141;-67
2021/05/30 06:58:25;;;;;;;;;;;22.80;39.10;;;;;;1588468;73;769;-67
2021/05/30 07:00:27;;;;;;;;;;;22.90;39.20;;;;;;1594252;73;726;-67
2021/05/30 07:02:29;;;;;;;;;;;22.80;39.10;;;;;;1586435;73;634;-67
2021/05/30 07:04:30;;;;;;;;;;;22.80;39.20;;;;;;1585997;73;1893;-66
2021/05/30 07:06:32;;;;;;;;;;;22.90;39.20;;;;;;1590347;73;1113;-68
2021/05/30 07:08:34;;;;;;;;;;;22.90;39.20;;;;;;1599392;73;774;-67
2021/05/30 07:10:36;;;;;;;;;;;22.80;39.10;;;;;;1600553;73;747;-66
2021/05/30 07:12:38;;;;;;;;;;;22.80;39.10;;;;;;1586810;73;720;-67
2021/05/30 07:14:40;;;;;;;;;;;22.80;39.10;;;;;;1590281;73;1143;-67
2021/05/30 07:16:42;;;;;;;;;;;22.80;39.10;;;;;;1586255;73;718;-67
2021/05/30 07:18:43;;;;;;;;;;;22.80;39.20;;;;;;1592376;73;696;-68
2021/05/30 07:20:45;;;;;;;;;;;22.80;39.20;;;;;;1592555;73;750;-66
2021/05/30 07:22:47;;;;;;;;;;;22.90;39.30;;;;;;1579465;73;701;-67
2021/05/30 07:24:49;;;;;;;;;;;22.80;39.20;;;;;;1590029;73;1948;-66
2021/05/30 07:26:51;;;;;;;;;;;22.90;39.50;;;;;;1587091;73;716;-66
2021/05/30 07:28:53;;;;;;;;;;;22.90;39.70;;;;;;1584219;73;811;-66
2021/05/30 07:30:55;;;;;;;;;;;22.80;39.60;;;;;;1589175;73;780;-67
2021/05/30 07:32:57;;;;;;;;;;;22.80;39.90;;;;;;1603285;73;707;-65
2021/05/30 07:34:59;;;;;;;;;;;22.80;39.90;;;;;;1589655;73;1194;-65
2021/05/30 07:37:01;;;;;;;;;;;22.80;40.20;;;;;;1592523;73;707;-64
2021/05/30 07:39:03;;;;;;;;;;;22.90;40.50;;;;;;1590256;73;827;-63
2021/05/30 07:41:05;;;;;;;;;;;22.70;40.30;;;;;;1586696;73;674;-66
2021/05/30 07:43:06;;;;;;;;;;;22.80;40.50;;;;;;1597034;73;794;-68
2021/05/30 07:45:09;;;;;;;;;;;22.70;40.40;;;;;;1592719;73;1938;-65
2021/05/30 07:47:11;;;;;;;;;;;22.80;40.00;;;;;;1574369;73;966;-65
2021/05/30 07:49:12;;;;;;;;;;;22.90;39.90;;;;;;1581519;73;886;-65
2021/05/30 07:51:14;;;;;;;;;;;23.00;39.70;;;;;;1582239;73;768;-64
2021/05/30 07:53:16;;;;;;;;;;;23.00;39.40;;;;;;1581742;73;729;-65
2021/05/30 07:55:18;;;;;;;;;;;22.90;39.10;;;;;;1595297;73;1201;-65
2021/05/30 07:57:20;;;;;;;;;;;22.90;38.90;;;;;;1594020;73;701;-65
2021/05/30 07:59:23;;;;;;;;;;;22.90;38.90;;;;;;1586224;73;756;-65
2021/05/30 08:01:25;;;;;;;;;;;22.90;38.70;;;;;;1583386;73;750;-65
2021/05/30 08:03:27;;;;;;;;;;;22.90;38.60;;;;;;1589349;73;1937;-65
2021/05/30 08:05:28;;;;;;;;;;;22.90;38.60;;;;;;1595808;73;1397;-65
2021/05/30 08:07:30;;;;;;;;;;;22.80;38.40;;;;;;1589486;73;741;-65
2021/05/30 08:09:32;;;;;;;;;;;22.80;38.30;;;;;;1594357;73;791;-66
2021/05/30 08:11:34;;;;;;;;;;;22.80;38.40;;;;;;1586998;73;782;-64
2021/05/30 08:13:36;;;;;;;;;;;22.90;38.60;;;;;;1579675;73;782;-65
2021/05/30 08:15:38;;;;;;;;;;;22.90;39.00;;;;;;1590658;73;1121;-66
2021/05/30 08:17:40;;;;;;;;;;;22.70;39.40;;;;;;1592397;73;783;-66
2021/05/30 08:19:42;;;;;;;;;;;22.70;39.40;;;;;;1597578;73;697;-66
2021/05/30 08:21:44;;;;;;;;;;;22.50;37.60;;;;;;1595752;73;720;-66
2021/05/30 08:23:46;;;;;;;;;;;22.00;35.20;;;;;;1595824;73;1941;-65
2021/05/30 08:25:48;;;;;;;;;;;21.80;35.70;;;;;;1595191;73;1120;-66
2021/05/30 08:27:50;;;;;;;;;;;21.70;37.60;;;;;;1585063;73;759;-66
2021/05/30 08:29:52;;;;;;;;;;;21.50;35.70;;;;;;1587342;73;822;-66
2021/05/30 08:31:54;;;;;;;;;;;21.40;35.60;;;;;;1590309;73;746;-67
2021/05/30 08:33:56;;;;;;;;;;;21.20;35.20;;;;;;1578434;73;835;-67
2021/05/30 08:35:57;;;;;;;;;;;21.00;34.50;;;;;;1582014;73;1188;-66
2021/05/30 08:37:59;;;;;;;;;;;20.90;36.00;;;;;;1583988;73;643;-66
2021/05/30 08:40:01;;;;;;;;;;;20.90;36.20;;;;;;1597437;73;791;-66
2021/05/30 08:42:03;;;;;;;;;;;21.00;36.50;;;;;;1601302;73;715;-66
2021/05/30 08:44:06;;;;;;;;;;;20.90;36.50;;;;;;1584314;73;1905;-66
2021/05/30 08:46:07;;;;;;;;;;;21.10;37.10;;;;;;1578722;71;2061;-69
2021/05/30 08:48:09;;;;;;;;;;;21.00;36.10;;;;;;1559845;74;809;-68
2021/05/30 08:50:11;;;;;;;;;;;20.90;36.50;;;;;;1561728;74;880;-67
2021/05/30 08:52:13;;;;;;;;;;;21.10;35.00;;;;;;1561581;74;731;-67
2021/05/30 08:54:16;;;;;;;;;;;21.00;33.80;;;;;;1561547;74;679;-69
2021/05/30 08:56:18;;;;;;;;;;;21.00;34.80;;;;;;1570834;74;1215;-67
2021/05/30 08:58:20;;;;;;;;;;;21.00;34.90;;;;;;1541355;74;798;-67
2021/05/30 09:00:23;;;;;;;;;;;21.10;35.20;;;;;;1540102;75;744;-67
2021/05/30 09:02:25;;;;;;;;;;;21.10;34.40;;;;;;1538801;75;792;-67
2021/05/30 09:04:31;;;;;;;;;;;21.10;34.40;;;;;;1537753;75;1940;-67
2021/05/30 09:06:34;;;;;;;;;;;21.10;34.60;;;;;;1544119;76;2057;-68
2021/05/30 09:08:36;;;;;;;;;;;21.10;33.30;;;;;;1540097;75;824;-68
2021/05/30 09:10:38;;;;;;;;;;;21.10;32.30;;;;;;1538721;75;820;-69
2021/05/30 09:12:41;;;;;;;;;;;21.10;32.80;;;;;;1561195;75;801;-67
2021/05/30 09:14:51;;;;;;;;;;;21.10;33.00;;;;;;1522171;76;725;-67
2021/05/30 09:16:54;;;;;;;;;;;21.00;32.90;;;;;;1524877;76;1229;-68
2021/05/30 09:18:56;;;;;;;;;;;20.90;33.00;;;;;;1548723;75;718;-67
2021/05/30 09:20:58;;;;;;;;;;;20.90;33.20;;;;;;1555419;75;743;-67
2021/05/30 09:23:00;;;;;;;;;;;20.90;33.60;;;;;;1545168;75;790;-69
2021/05/30 09:25:10;;;;;;;;;;;20.80;33.60;;;;;;1553683;75;1943;-67
2021/05/30 09:27:12;;;;;;;;;;;20.80;34.20;;;;;;1554724;75;691;-67
2021/05/30 09:29:14;;;;;;;;;;;20.90;34.00;;;;;;1549487;75;740;-67
2021/05/30 09:31:16;;;;;;;;;;;20.80;32.70;;;;;;1552202;75;773;-68
2021/05/30 09:33:23;;;;;;;;;;;20.80;32.70;;;;;;1555318;75;750;-67
2021/05/30 09:35:25;;;;;;;;;;;20.80;32.60;;;;;;1548528;75;1673;-67
2021/05/30 09:37:27;;;;;;;;;;;20.80;33.10;;;;;;1553223;75;765;-67
2021/05/30 09:39:39;;;;;;;;;;;20.80;33.00;;;;;;1555177;75;805;-67
2021/05/30 09:41:41;;;;;;;;;;;20.80;33.40;;;;;;1551596;75;732;-67
2021/05/30 09:43:52;;;;;;;;;;;20.90;34.40;;;;;;1518563;76;719;-64
2021/05/30 09:46:02;;;;;;;;;;;20.90;32.80;;;;;;1534772;76;1944;-67
2021/05/30 09:48:04;;;;;;;;;;;20.90;32.60;;;;;;1517487;76;830;-67
2021/05/30 09:50:06;;;;;;;;;;;20.90;33.10;;;;;;1557228;75;865;-70
2021/05/30 09:52:08;;;;;;;;;;;20.90;33.80;;;;;;1557677;74;705;-67
2021/05/30 09:54:19;;;;;;;;;;;21.00;33.70;;;;;;1551067;74;792;-67
2021/05/30 09:56:29;;;;;;;;;;;21.10;33.90;;;;;;1554989;75;1142;-67
2021/05/30 09:58:31;;;;;;;;;;;21.10;33.70;;;;;;1552915;75;942;-68
2021/05/30 10:00:34;;;;;;;;;;;21.00;32.40;;;;;;1551753;75;744;-68
2021/05/30 10:02:35;;;;;;;;;;;21.00;32.60;;;;;;1554445;75;770;-67
2021/05/30 10:04:38;;;;;;;;;;;20.90;32.60;;;;;;1553217;75;1948;-68
2021/05/30 10:06:40;;;;;;;;;;;20.90;33.30;;;;;;1551875;75;1151;-68
2021/05/30 10:08:42;;;;;;;;;;;21.00;33.90;;;;;;1542474;74;891;-67
2021/05/30 10:10:44;;;;;;;;;;;21.10;33.70;;;;;;1543783;75;714;-68
2021/05/30 10:12:46;;;;;;;;;;;21.10;34.40;;;;;;1528766;76;707;-70
2021/05/30 10:14:49;;;;;;;;;;;21.10;33.80;;;;;;1515649;77;710;-67
2021/05/30 10:16:51;;;;;;;;;;;21.20;33.60;;;;;;1541572;76;1179;-69
2021/05/30 10:18:53;;;;;;;;;;;21.30;34.30;;;;;;1558631;74;808;-68
2021/05/30 10:20:54;;;;;;;;;;;21.40;34.30;;;;;;1558268;75;804;-69
2021/05/30 10:22:57;;;;;;;;;;;21.50;34.10;;;;;;1531374;76;819;-69
2021/05/30 10:24:58;;;;;;;;;;;21.40;33.20;;;;;;1529965;76;1924;-69
2021/05/30 10:27:15;;;;;;;;;;;21.40;32.60;;;;;;1545607;74;763;-70
2021/05/30 10:29:18;;;;;;;;;;;21.20;32.40;;;;;;1553261;75;932;-69
2021/05/30 10:31:21;;;;;;;;;;;21.10;33.40;;;;;;1549025;74;739;-69
2021/05/30 10:33:24;;;;;;;;;;;21.10;33.10;;;;;;1576816;74;1827;-70
2021/05/30 10:35:26;;;;;;;;;;;21.10;33.40;;;;;;1540126;74;1193;-69
2021/05/30 10:37:28;;;;;;;;;;;21.10;33.50;;;;;;1518563;76;802;-69
2021/05/30 10:39:31;;;;;;;;;;;21.10;33.10;;;;;;1540933;75;723;-69
2021/05/30 10:41:33;;;;;;;;;;;21.10;33.80;;;;;;1533749;76;719;-70
2021/05/30 10:43:35;;;;;;;;;;;21.10;33.20;;;;;;1511915;77;783;-69
2021/05/30 10:45:45;;;;;;;;;;;21.20;33.10;;;;;;1532915;76;1953;-68
2021/05/30 10:47:52;;;;;;;;;;;21.10;32.80;;;;;;1538561;76;800;-66
2021/05/30 10:50:14;;;;;;;;;;;21.10;31.70;;;;;;1528524;76;1609;-67
2021/05/30 10:52:13;;;;;;;;;;;21.00;32.30;;;;;;1536944;76;1648;-70
2021/05/30 10:54:15;;;;;;;;;;;21.00;32.40;;;;;;1525945;76;1982;-73
2021/05/30 10:56:24;;;;;;;;;;;20.80;31.50;;;;;;1533624;76;1141;-68
2021/05/30 10:58:27;;;;;;;;;;;20.70;32.60;;;;;;1536450;76;837;-69
2021/05/30 11:00:35;;;;;;;;;;;20.90;33.30;;;;;;1530821;76;780;-69
2021/05/30 11:02:38;;;;;;;;;;;21.00;33.00;;;;;;1533420;76;881;-73
2021/05/30 11:04:40;;;;;;;;;;;21.10;33.10;;;;;;1530769;76;1918;-73
2021/05/30 11:06:42;;;;;;;;;;;21.00;32.00;;;;;;1526957;76;1146;-73
2021/05/30 11:08:55;;;;;;;;;;;21.00;32.60;;;;;;1524223;76;740;-72
2021/05/30 11:11:14;;;;;;;;;;;21.10;33.10;;;;;;1538706;76;647;-73
2021/05/30 11:13:16;;;;;;;;;;;21.20;33.00;;;;;;1531244;76;760;-69
2021/05/30 11:15:19;;;;;;;;;;;21.40;32.70;;;;;;1534445;76;1142;-72
2021/05/30 11:17:37;;;;;;;;;;;21.30;32.00;;;;;;1531171;76;761;-69
2021/05/30 11:19:38;;;;;;;;;;;21.10;31.10;;;;;;1534794;76;723;-72
2021/05/30 11:21:43;;;;;;;;;;;21.00;31.40;;;;;;1530865;76;730;-73
2021/05/30 11:23:45;;;;;;;;;;;21.10;32.30;;;;;;1532354;76;799;-72
2021/05/30 11:25:49;;;;;;;;;;;21.10;31.80;;;;;;1533858;76;1956;-72
2021/05/30 11:27:57;;;;;;;;;;;21.20;31.50;;;;;;1538483;76;684;-72
2021/05/30 11:29:59;;;;;;;;;;;21.20;31.90;;;;;;1534887;76;736;-72
2021/05/30 11:32:02;;;;;;;;;;;21.40;32.10;;;;;;1533847;76;774;-72
2021/05/30 11:34:07;;;;;;;;;;;21.50;32.50;;;;;;1539278;76;757;-73
2021/05/30 11:36:10;;;;;;;;;;;21.50;32.30;;;;;;1535266;76;1119;-73
2021/05/30 11:38:12;;;;;;;;;;;21.40;31.20;;;;;;1519175;76;706;-72
2021/05/30 11:40:15;;;;;;;;;;;21.40;31.00;;;;;;1526088;76;741;-72
2021/05/30 11:42:19;;;;;;;;;;;21.30;30.00;;;;;;1542625;75;1805;-72
2021/05/30 11:44:21;;;;;;;;;;;21.10;30.80;;;;;;1559151;75;1574;-72
2021/05/30 11:46:23;;;;;;;;;;;21.00;30.60;;;;;;1561008;74;1946;-74
2021/05/30 11:48:26;;;;;;;;;;;21.00;31.30;;;;;;1570411;75;777;-72
2021/05/30 11:50:31;;;;;;;;;;;21.00;30.10;;;;;;1568596;74;770;-73
2021/05/30 11:52:34;;;;;;;;;;;20.90;30.80;;;;;;1576626;74;811;-73
2021/05/30 11:54:52;;;;;;;;;;;20.80;30.50;;;;;;1562124;74;679;-72
2021/05/30 11:56:54;;;;;;;;;;;20.70;29.10;;;;;;1535851;75;1496;-73
2021/05/30 11:58:56;;;;;;;;;;;20.70;30.80;;;;;;1545256;74;860;-72
2021/05/30 12:01:01;;;;;;;;;;;20.80;30.70;;;;;;1531544;76;722;-74
2021/05/30 12:03:10;;;;;;;;;;;20.90;31.40;;;;;;1554495;74;743;-71
2021/05/30 12:05:13;;;;;;;;;;;21.00;30.70;;;;;;1553126;74;1897;-71
2021/05/30 12:07:15;;;;;;;;;;;20.90;30.30;;;;;;1570225;75;738;-74
2021/05/30 12:09:17;;;;;;;;;;;20.90;30.00;;;;;;1534583;76;1248;-72
2021/05/30 12:11:19;;;;;;;;;;;20.80;30.20;;;;;;1555326;75;744;-72